»·PEaware :: N698SP KBFL-KMHV

N698SP :: KBFL-KMHV

FLIGHT INFORMATION

Flight Status: Arrived
Operator: Privately registered:
United States
More flights under this callsign
Pilot: Dominik G. (31997)
Aircraft: CESSNA 172 SKYHAWK
(C172)
More flights by this aircraft type
Origin: KBFL Meadows
United States
Destination: KMHV Mojave
United States
More flights between these airports :: More routes between these airports
Route:
File this flight plan on PilotEdge
Remarks:
Altitude:
(Current/Filed)
7,500ft
Speed:
(Current/Filed)
104kts
Departed: 20-Dec-20 04:47 PM
Arrived: 20-Dec-20 05:27 PM
Distance/Time
Traveled:
50nm/0:40
Distance/Time
To Go:
Arrived

Flight Plot

Page will automatically refresh every two minutes.


Map Options




Map Legend


Flown Route
Filed Route
Departure Airport
Arrival Airport
Navaid (VOR, NDB)
Fix

Horizontal Profiles

Position Reports

Time Latitude Longitude Heading Altitude Ground
Speed
20-Dec-20 16:30 35.435703 -119.052044 0 511ft 0kts
20-Dec-20 16:31 35.435703 -119.052044 180 511ft 0kts
20-Dec-20 16:31 35.435703 -119.052044 180 511ft 0kts
20-Dec-20 16:32 35.435703 -119.052044 180 511ft 0kts
20-Dec-20 16:33 35.435703 -119.052044 180 511ft 0kts
20-Dec-20 16:34 35.435703 -119.052044 180 511ft 0kts
20-Dec-20 16:35 35.435703 -119.052044 180 511ft 0kts
20-Dec-20 16:36 35.435703 -119.052044 180 511ft 0kts
20-Dec-20 16:37 35.435703 -119.052044 180 511ft 0kts
20-Dec-20 16:38 35.435703 -119.052044 180 511ft 0kts
20-Dec-20 16:39 35.435703 -119.052044 180 511ft 0kts
20-Dec-20 16:40 35.435618 -119.052041 175 511ft 3kts
20-Dec-20 16:41 35.434694 -119.054341 228 497ft 9kts
20-Dec-20 16:42 35.431808 -119.051470 134 495ft 24kts
20-Dec-20 16:43 35.428552 -119.047583 134 492ft 10kts
20-Dec-20 16:44 35.425775 -119.045016 236 483ft 1kts
20-Dec-20 16:45 35.425449 -119.045551 239 480ft 8kts
20-Dec-20 16:46 35.435913 -119.058188 324 1058ft 77kts
20-Dec-20 16:47 35.453684 -119.063159 80 2034ft 91kts
20-Dec-20 16:48 35.443323 -119.039673 146 3136ft 82kts
20-Dec-20 16:49 35.425973 -119.022006 142 4091ft 82kts
20-Dec-20 16:50 35.411287 -119.000748 118 4977ft 83kts
20-Dec-20 16:51 35.397778 -118.973566 118 5834ft 89kts
20-Dec-20 16:52 35.385423 -118.947531 113 6635ft 87kts
20-Dec-20 16:53 35.374545 -118.921672 113 7431ft 83kts
20-Dec-20 16:54 35.362357 -118.892613 114 7514ft 100kts
20-Dec-20 16:55 35.349443 -118.861561 114 7518ft 103kts
20-Dec-20 16:56 35.336414 -118.830110 114 7520ft 104kts
20-Dec-20 16:57 35.323299 -118.798366 114 7521ft 104kts
20-Dec-20 16:58 35.310167 -118.766698 114 7522ft 104kts
20-Dec-20 16:59 35.297163 -118.734770 113 7523ft 103kts
20-Dec-20 17:00 35.281953 -118.704828 122 7546ft 102kts
20-Dec-20 17:01 35.264831 -118.676769 119 7557ft 102kts
20-Dec-20 17:02 35.248728 -118.647939 123 7570ft 102kts
20-Dec-20 17:03 35.231916 -118.619910 122 7569ft 102kts
20-Dec-20 17:04 35.214972 -118.591902 122 7570ft 102kts
20-Dec-20 17:05 35.198061 -118.564206 123 7571ft 101kts
20-Dec-20 17:06 35.181186 -118.536763 123 7571ft 100kts
20-Dec-20 17:07 35.164349 -118.509488 123 7571ft 100kts
20-Dec-20 17:08 35.147929 -118.481773 114 7571ft 99kts
20-Dec-20 17:09 35.134887 -118.451950 114 7571ft 99kts
20-Dec-20 17:10 35.122940 -118.425041 114 7569ft 81kts
20-Dec-20 17:11 35.113092 -118.401276 108 7570ft 75kts
20-Dec-20 17:12 35.105881 -118.376240 104 7479ft 94kts
20-Dec-20 17:13 35.098978 -118.341130 100 6990ft 106kts
20-Dec-20 17:14 35.092873 -118.307830 100 6490ft 97kts
20-Dec-20 17:15 35.093465 -118.275900 71 6006ft 94kts
20-Dec-20 17:16 35.101660 -118.244810 71 5643ft 101kts
20-Dec-20 17:17 35.110514 -118.211225 71 5149ft 105kts
20-Dec-20 17:18 35.119414 -118.177101 76 4653ft 106kts
20-Dec-20 17:19 35.108136 -118.144054 135 4153ft 111kts
20-Dec-20 17:20 35.086928 -118.160192 225 4328ft 96kts
20-Dec-20 17:21 35.062611 -118.167526 146 4155ft 100kts
20-Dec-20 17:22 35.041576 -118.146188 134 3891ft 82kts
20-Dec-20 17:23 35.026498 -118.129370 135 3777ft 73kts
20-Dec-20 17:24 35.033108 -118.117551 329 3285ft 63kts
20-Dec-20 17:25 35.046236 -118.132781 318 2708ft 62kts
20-Dec-20 17:26 35.052247 -118.139991 314 2715ft 17kts
20-Dec-20 17:27 35.057113 -118.146005 323 2742ft 19kts
20-Dec-20 17:28 35.057584 -118.147853 270 2746ft 0kts
20-Dec-20 17:29 35.056983 -118.148646 205 2747ft 0kts

Navigation Log

Ident Type
Flight plan parsing failed, navigation log unavailable